createdAt,value
2019-02-15T00:00:43.024Z,1026.06
2019-02-15T00:01:43.012Z,1026.06
2019-02-15T00:02:43.003Z,1026.03
2019-02-15T00:03:43.025Z,1026.07
2019-02-15T00:04:42.990Z,1026.04
2019-02-15T00:05:42.977Z,1026.07
2019-02-15T00:06:42.959Z,1026.04
2019-02-15T00:07:42.948Z,1026.05
2019-02-15T00:08:42.934Z,1026.07
2019-02-15T00:09:42.936Z,1026.05
2019-02-15T00:10:42.927Z,1026.03
2019-02-15T00:11:42.910Z,1026.04
2019-02-15T00:12:42.923Z,1026.04
2019-02-15T00:13:42.881Z,1026.01
2019-02-15T00:14:42.870Z,1026.02
2019-02-15T00:15:42.861Z,1026.02
2019-02-15T00:16:42.848Z,1026.02
2019-02-15T00:17:42.845Z,1026.03
2019-02-15T00:18:42.841Z,1025.98
2019-02-15T00:19:42.817Z,1026.01
2019-02-15T00:20:42.845Z,1025.97
2019-02-15T00:21:42.793Z,1026.01
2019-02-15T00:22:42.785Z,1025.96
2019-02-15T00:23:42.783Z,1026.00
2019-02-15T00:24:42.764Z,1025.99
2019-02-15T00:25:42.751Z,1025.98
2019-02-15T00:26:42.752Z,1025.97
2019-02-15T00:27:42.736Z,1025.97
2019-02-15T00:28:42.721Z,1025.93
2019-02-15T00:29:42.738Z,1025.88
2019-02-15T00:30:42.697Z,1025.94
2019-02-15T00:31:42.699Z,1025.90
2019-02-15T00:32:42.674Z,1025.90
2019-02-15T00:33:42.678Z,1025.91
2019-02-15T00:34:42.652Z,1025.93
2019-02-15T00:35:42.646Z,1025.93
2019-02-15T00:36:42.642Z,1025.94
2019-02-15T00:37:42.632Z,1025.94
2019-02-15T00:38:42.614Z,1025.92
2019-02-15T00:39:42.598Z,1025.98
2019-02-15T00:40:42.588Z,1025.97
2019-02-15T00:41:42.594Z,1025.95
2019-02-15T00:42:42.580Z,1025.97
2019-02-15T00:43:42.554Z,1026.01
2019-02-15T00:44:42.545Z,1025.99
2019-02-15T00:45:42.534Z,1026.00
2019-02-15T00:46:42.522Z,1026.01
2019-02-15T00:47:42.551Z,1026.06
2019-02-15T00:48:42.500Z,1026.09
2019-02-15T00:49:42.495Z,1026.06
2019-02-15T00:50:42.485Z,1026.09
2019-02-15T00:51:42.468Z,1026.08
2019-02-15T00:52:42.456Z,1026.07
2019-02-15T00:53:42.476Z,1026.01
2019-02-15T00:54:42.436Z,1026.09
2019-02-15T00:55:42.424Z,1026.05
2019-02-15T00:56:42.415Z,1026.07
2019-02-15T00:57:42.401Z,1026.05
2019-02-15T00:58:42.393Z,1026.07
2019-02-15T00:59:42.402Z,1026.09
2019-02-15T01:00:42.377Z,1026.04
2019-02-15T01:01:42.367Z,1026.09
2019-02-15T01:02:42.352Z,1026.05
2019-02-15T01:03:42.338Z,1026.10
2019-02-15T01:04:42.341Z,1026.03
2019-02-15T01:05:42.318Z,1026.06
2019-02-15T01:06:42.320Z,1026.06
2019-02-15T01:07:42.294Z,1026.08
2019-02-15T01:08:42.295Z,1026.11
2019-02-15T01:09:42.272Z,1026.10
2019-02-15T01:10:42.262Z,1026.10
2019-02-15T01:11:42.250Z,1026.14
2019-02-15T01:12:42.249Z,1026.12
2019-02-15T01:13:42.263Z,1026.17
2019-02-15T01:14:42.217Z,1026.14
2019-02-15T01:15:42.208Z,1026.14
2019-02-15T01:16:42.195Z,1026.12
2019-02-15T01:17:42.185Z,1026.12
2019-02-15T01:18:42.184Z,1026.10
2019-02-15T01:19:42.176Z,1026.10
2019-02-15T01:20:42.166Z,1026.07
2019-02-15T01:21:42.142Z,1026.06
2019-02-15T01:22:42.132Z,1026.06
2019-02-15T01:23:42.120Z,1026.04
2019-02-15T01:24:42.116Z,1026.05
2019-02-15T01:25:42.118Z,1026.04
2019-02-15T01:26:42.087Z,1026.03
2019-02-15T01:27:42.076Z,1026.04
2019-02-15T01:28:42.067Z,1026.03
2019-02-15T01:29:42.057Z,1026.00
2019-02-15T01:30:42.049Z,1026.01
2019-02-15T01:31:42.060Z,1026.00
2019-02-15T01:32:42.024Z,1026.00
2019-02-15T01:33:42.012Z,1026.00
2019-02-15T01:34:42.007Z,1026.02
2019-02-15T01:35:41.995Z,1026.00
2019-02-15T01:36:41.984Z,1026.06
2019-02-15T01:37:42.006Z,1026.04
2019-02-15T01:38:41.958Z,1026.05
2019-02-15T01:39:41.948Z,1026.06
2019-02-15T01:40:41.935Z,1026.04
2019-02-15T01:41:41.930Z,1026.08
2019-02-15T01:42:41.921Z,1026.06
2019-02-15T01:43:41.939Z,1026.06
2019-02-15T01:44:41.892Z,1026.07
2019-02-15T01:45:41.886Z,1026.07
2019-02-15T01:46:41.873Z,1026.05
2019-02-15T01:47:41.872Z,1026.02
2019-02-15T01:48:41.867Z,1025.99
2019-02-15T01:49:41.877Z,1026.01
2019-02-15T01:50:41.830Z,1025.99
2019-02-15T01:51:41.819Z,1025.98
2019-02-15T01:52:41.811Z,1025.98
2019-02-15T01:53:41.795Z,1026.00
2019-02-15T01:54:41.791Z,1026.02
2019-02-15T01:55:41.807Z,1025.96
2019-02-15T01:56:41.764Z,1025.92
2019-02-15T01:57:41.762Z,1025.95
2019-02-15T01:58:41.742Z,1025.91
2019-02-15T01:59:41.734Z,1025.93
2019-02-15T02:00:41.730Z,1025.91
2019-02-15T02:01:41.723Z,1025.87
2019-02-15T02:02:41.699Z,1025.92
2019-02-15T02:03:41.689Z,1025.92
2019-02-15T02:04:41.680Z,1025.92
2019-02-15T02:05:41.679Z,1025.93
2019-02-15T02:06:41.661Z,1025.90
2019-02-15T02:07:41.644Z,1025.92
2019-02-15T02:08:41.648Z,1025.92
2019-02-15T02:09:41.623Z,1025.89
2019-02-15T02:10:41.613Z,1025.88
2019-02-15T02:11:41.606Z,1025.91
2019-02-15T02:12:41.612Z,1025.90
2019-02-15T02:13:49.356Z,1025.92
2019-02-15T02:14:42.566Z,1025.89
2019-02-15T02:15:41.562Z,1025.92
2019-02-15T02:16:41.546Z,1025.90
2019-02-15T02:17:41.556Z,1025.92
2019-02-15T02:18:41.575Z,1025.89
2019-02-15T02:19:41.515Z,1025.87
2019-02-15T02:20:41.503Z,1025.88
2019-02-15T02:21:41.494Z,1025.85
2019-02-15T02:22:41.485Z,1025.84
2019-02-15T02:23:41.487Z,1025.87
2019-02-15T02:24:41.477Z,1025.83
2019-02-15T02:25:41.451Z,1025.86
2019-02-15T02:26:41.439Z,1025.82
2019-02-15T02:27:41.429Z,1025.85
2019-02-15T02:28:41.424Z,1025.88
2019-02-15T02:29:41.441Z,1025.83
2019-02-15T02:30:41.401Z,1025.84
2019-02-15T02:31:41.391Z,1025.86
2019-02-15T02:32:41.381Z,1025.89
2019-02-15T02:33:41.367Z,1025.85
2019-02-15T02:34:41.352Z,1025.86
2019-02-15T02:35:41.371Z,1025.82
2019-02-15T02:36:41.338Z,1025.85
2019-02-15T02:37:41.350Z,1025.80
2019-02-15T02:38:41.309Z,1025.81
2019-02-15T02:39:41.298Z,1025.82
2019-02-15T02:40:41.288Z,1025.84
2019-02-15T02:41:41.294Z,1025.82
2019-02-15T02:42:41.273Z,1025.79
2019-02-15T02:43:41.255Z,1025.80
2019-02-15T02:44:41.311Z,1025.82
2019-02-15T02:45:41.233Z,1025.80
2019-02-15T02:46:41.269Z,1025.84
2019-02-15T02:47:41.212Z,1025.87
2019-02-15T02:48:41.215Z,1025.88
2019-02-15T02:49:41.193Z,1025.85
2019-02-15T02:50:41.180Z,1025.88
2019-02-15T02:51:41.171Z,1025.88
2019-02-15T02:52:41.176Z,1025.83
2019-02-15T02:53:41.150Z,1025.87
2019-02-15T02:54:41.144Z,1025.83
2019-02-15T02:55:41.124Z,1025.81
2019-02-15T02:56:41.115Z,1025.81
2019-02-15T02:57:41.124Z,1025.82
2019-02-15T02:58:41.094Z,1025.79
2019-02-15T02:59:41.082Z,1025.84
2019-02-15T03:00:41.078Z,1025.83
2019-02-15T03:01:41.061Z,1025.79
2019-02-15T03:02:41.058Z,1025.83
2019-02-15T03:03:41.054Z,1025.83
2019-02-15T03:04:41.044Z,1025.85
2019-02-15T03:05:41.019Z,1025.85
2019-02-15T03:06:41.015Z,1025.83
2019-02-15T03:07:40.996Z,1025.86
2019-02-15T03:08:40.984Z,1025.85
2019-02-15T03:09:41.001Z,1025.82
2019-02-15T03:10:40.964Z,1025.83
2019-02-15T03:11:40.950Z,1025.83
2019-02-15T03:12:40.946Z,1025.82
2019-02-15T03:13:40.936Z,1025.82
2019-02-15T03:14:40.920Z,1025.78
2019-02-15T03:15:40.922Z,1025.74
2019-02-15T03:16:40.898Z,1025.77
2019-02-15T03:17:40.890Z,1025.76
2019-02-15T03:18:40.886Z,1025.75
2019-02-15T03:19:40.865Z,1025.77
2019-02-15T03:20:40.892Z,1025.79
2019-02-15T03:21:40.844Z,1025.80
2019-02-15T03:22:40.833Z,1025.78
2019-02-15T03:23:40.828Z,1025.77
2019-02-15T03:24:40.822Z,1025.78
2019-02-15T03:25:40.806Z,1025.72
2019-02-15T03:26:40.803Z,1025.76
2019-02-15T03:27:40.778Z,1025.76
2019-02-15T03:28:40.768Z,1025.75
2019-02-15T03:29:40.773Z,1025.74
2019-02-15T03:30:40.750Z,1025.73
2019-02-15T03:31:40.769Z,1025.76
2019-02-15T03:32:40.728Z,1025.77
2019-02-15T03:33:40.718Z,1025.73
2019-02-15T03:34:40.709Z,1025.73
2019-02-15T03:35:40.694Z,1025.76
2019-02-15T03:36:40.688Z,1025.77
2019-02-15T03:37:40.682Z,1025.80
2019-02-15T03:38:40.681Z,1025.79
2019-02-15T03:39:40.647Z,1025.75
2019-02-15T03:40:40.650Z,1025.72
2019-02-15T03:41:40.626Z,1025.76
2019-02-15T03:42:40.626Z,1025.74
2019-02-15T03:43:40.607Z,1025.72
2019-02-15T03:44:40.600Z,1025.67
2019-02-15T03:45:40.597Z,1025.66
2019-02-15T03:46:40.588Z,1025.64
2019-02-15T03:47:40.585Z,1025.67
2019-02-15T03:48:40.557Z,1025.64
2019-02-15T03:49:40.542Z,1025.63
2019-02-15T03:50:40.542Z,1025.64
2019-02-15T03:51:40.522Z,1025.65
2019-02-15T03:52:40.515Z,1025.63
2019-02-15T03:53:40.499Z,1025.64
2019-02-15T03:54:40.513Z,1025.65
2019-02-15T03:55:40.478Z,1025.66
2019-02-15T03:56:40.469Z,1025.67
2019-02-15T03:57:40.465Z,1025.69
2019-02-15T03:58:40.444Z,1025.67
2019-02-15T03:59:40.447Z,1025.65
2019-02-15T04:00:40.427Z,1025.66
2019-02-15T04:01:40.418Z,1025.62
2019-02-15T04:02:40.422Z,1025.64
2019-02-15T04:03:40.391Z,1025.65
2019-02-15T04:04:40.377Z,1025.62
2019-02-15T04:05:40.369Z,1025.65
2019-02-15T04:06:40.360Z,1025.60
2019-02-15T04:07:40.381Z,1025.65
2019-02-15T04:08:40.334Z,1025.67
2019-02-15T04:09:40.325Z,1025.65
2019-02-15T04:10:40.314Z,1025.65
2019-02-15T04:11:40.300Z,1025.65
2019-02-15T04:12:40.300Z,1025.60
2019-02-15T04:13:40.319Z,1025.60
2019-02-15T04:14:40.277Z,1025.63
2019-02-15T04:15:40.259Z,1025.61
2019-02-15T04:16:40.248Z,1025.65
2019-02-15T04:17:40.238Z,1025.61
2019-02-15T04:18:40.236Z,1025.63
2019-02-15T04:19:40.228Z,1025.57
2019-02-15T04:20:40.203Z,1025.61
2019-02-15T04:21:40.196Z,1025.60
2019-02-15T04:22:40.205Z,1025.61
2019-02-15T04:23:40.177Z,1025.61
2019-02-15T04:24:40.170Z,1025.58
2019-02-15T04:25:40.176Z,1025.58
2019-02-15T04:26:40.139Z,1025.61
2019-02-15T04:27:40.132Z,1025.59
2019-02-15T04:28:40.132Z,1025.59
2019-02-15T04:29:40.123Z,1025.62
2019-02-15T04:30:40.114Z,1025.61
2019-02-15T04:31:40.086Z,1025.55
2019-02-15T04:32:40.080Z,1025.56
2019-02-15T04:33:40.066Z,1025.55
2019-02-15T04:34:40.054Z,1025.55
2019-02-15T04:35:40.056Z,1025.55
2019-02-15T04:36:40.064Z,1025.56
2019-02-15T04:37:40.023Z,1025.53
2019-02-15T04:38:40.011Z,1025.54
2019-02-15T04:39:40.001Z,1025.55
2019-02-15T04:40:39.990Z,1025.55
2019-02-15T04:41:39.998Z,1025.52
2019-02-15T04:42:39.989Z,1025.56
2019-02-15T04:43:39.958Z,1025.57
2019-02-15T04:44:42.788Z,1025.57
2019-02-15T04:45:39.937Z,1025.54
2019-02-15T04:46:39.925Z,1025.50
2019-02-15T04:47:39.958Z,1025.53
2019-02-15T04:48:39.904Z,1025.52
2019-02-15T04:49:39.893Z,1025.54
2019-02-15T04:50:39.881Z,1025.50
2019-02-15T04:51:39.871Z,1025.50
2019-02-15T04:52:39.860Z,1025.50
2019-02-15T04:53:39.871Z,1025.48
2019-02-15T04:54:39.837Z,1025.50
2019-02-15T04:55:39.825Z,1025.45
2019-02-15T04:56:39.818Z,1025.45
2019-02-15T04:57:39.809Z,1025.47
2019-02-15T04:58:39.807Z,1025.45
2019-02-15T04:59:39.797Z,1025.48
2019-02-15T05:00:39.780Z,1025.49
2019-02-15T05:01:39.764Z,1025.45
2019-02-15T05:02:39.751Z,1025.43
2019-02-15T05:03:39.775Z,1025.45
2019-02-15T05:04:39.744Z,1025.44
2019-02-15T05:05:39.731Z,1025.42
2019-02-15T05:06:39.707Z,1025.41
2019-02-15T05:07:39.696Z,1025.41
2019-02-15T05:08:39.695Z,1025.39
2019-02-15T05:09:39.698Z,1025.39
2019-02-15T05:10:39.666Z,1025.41
2019-02-15T05:11:39.666Z,1025.42
2019-02-15T05:12:39.655Z,1025.39
2019-02-15T05:13:39.633Z,1025.40
2019-02-15T05:14:39.623Z,1025.37
2019-02-15T05:15:39.650Z,1025.44
2019-02-15T05:16:39.599Z,1025.40
2019-02-15T05:17:39.597Z,1025.40
2019-02-15T05:18:39.576Z,1025.44
2019-02-15T05:19:39.581Z,1025.40
2019-02-15T05:20:39.565Z,1025.40
2019-02-15T05:21:39.567Z,1025.40
2019-02-15T05:22:39.535Z,1025.40
2019-02-15T05:23:39.537Z,1025.40
2019-02-15T05:24:39.518Z,1025.38
2019-02-15T05:25:39.503Z,1025.39
2019-02-15T05:26:39.491Z,1025.38
2019-02-15T05:27:39.497Z,1025.35
2019-02-15T05:28:39.470Z,1025.32
2019-02-15T05:29:39.467Z,1025.30
2019-02-15T05:30:39.449Z,1025.28
2019-02-15T05:31:39.441Z,1025.29
2019-02-15T05:32:39.439Z,1025.25
2019-02-15T05:33:39.454Z,1025.24
2019-02-15T05:34:39.414Z,1025.23
2019-02-15T05:35:39.407Z,1025.30
2019-02-15T05:36:39.387Z,1025.22
2019-02-15T05:37:39.374Z,1025.25
2019-02-15T05:38:41.260Z,1025.27
2019-02-15T05:39:39.364Z,1025.23
2019-02-15T05:40:39.345Z,1025.23
2019-02-15T05:41:39.338Z,1025.23
2019-02-15T05:42:39.320Z,1025.26
2019-02-15T05:43:39.310Z,1025.22
2019-02-15T05:44:39.336Z,1025.20
2019-02-15T05:45:39.288Z,1025.24
2019-02-15T05:46:39.275Z,1025.26
2019-02-15T05:47:39.271Z,1025.23
2019-02-15T05:48:39.255Z,1025.22
2019-02-15T05:49:39.247Z,1025.25
2019-02-15T05:50:39.254Z,1025.25
2019-02-15T05:51:39.230Z,1025.28
2019-02-15T05:52:39.212Z,1025.32
2019-02-15T05:53:39.207Z,1025.33
2019-02-15T05:54:39.188Z,1025.29
2019-02-15T05:55:39.181Z,1025.32
2019-02-15T05:56:39.182Z,1025.28
2019-02-15T05:57:39.156Z,1025.31
2019-02-15T05:58:39.146Z,1025.34
2019-02-15T05:59:39.144Z,1025.29
2019-02-15T06:00:39.127Z,1025.32
2019-02-15T06:01:39.137Z,1025.36
2019-02-15T06:02:39.104Z,1025.33
2019-02-15T06:03:39.096Z,1025.32
2019-02-15T06:04:39.080Z,1025.33
2019-02-15T06:05:39.175Z,1025.32
2019-02-15T06:06:39.060Z,1025.31
2019-02-15T06:07:39.084Z,1025.32
2019-02-15T06:08:39.050Z,1025.33
2019-02-15T06:09:39.034Z,1025.28
2019-02-15T06:10:39.015Z,1025.29
2019-02-15T06:11:39.016Z,1025.23
2019-02-15T06:12:38.996Z,1025.28
2019-02-15T06:13:39.007Z,1025.29
2019-02-15T06:14:38.975Z,1025.24
2019-02-15T06:15:38.964Z,1025.28
2019-02-15T06:16:38.957Z,1025.28
2019-02-15T06:17:38.951Z,1025.27
2019-02-15T06:18:38.930Z,1025.29
2019-02-15T06:19:38.933Z,1025.32
2019-02-15T06:20:38.907Z,1025.31
2019-02-15T06:21:38.898Z,1025.31
2019-02-15T06:22:38.895Z,1025.31
2019-02-15T06:23:38.887Z,1025.31
2019-02-15T06:24:38.881Z,1025.28
2019-02-15T06:25:38.864Z,1025.35
2019-02-15T06:26:38.856Z,1025.35
2019-02-15T06:27:38.833Z,1025.35
2019-02-15T06:28:38.823Z,1025.35
2019-02-15T06:29:38.833Z,1025.36
2019-02-15T06:30:38.815Z,1025.38
2019-02-15T06:31:38.803Z,1025.40
2019-02-15T06:32:38.784Z,1025.40
2019-02-15T06:33:38.768Z,1025.41
2019-02-15T06:34:38.795Z,1025.35
2019-02-15T06:35:38.757Z,1025.41
2019-02-15T06:36:38.735Z,1025.41
2019-02-15T06:37:38.748Z,1025.44
2019-02-15T06:38:38.724Z,1025.41
2019-02-15T06:39:38.704Z,1025.45
2019-02-15T06:40:38.706Z,1025.45
2019-02-15T06:41:38.688Z,1025.44
2019-02-15T06:42:38.682Z,1025.43
2019-02-15T06:43:38.661Z,1025.42
2019-02-15T06:44:38.659Z,1025.47
2019-02-15T06:45:38.667Z,1025.48
2019-02-15T06:46:38.643Z,1025.44
2019-02-15T06:47:38.629Z,1025.44
2019-02-15T06:48:38.609Z,1025.47
2019-02-15T06:49:38.602Z,1025.56
2019-02-15T06:50:38.585Z,1025.57
2019-02-15T06:51:38.601Z,1025.54
2019-02-15T06:52:38.563Z,1025.59
2019-02-15T06:53:38.558Z,1025.60
2019-02-15T06:54:38.542Z,1025.59
2019-02-15T06:55:38.532Z,1025.59
2019-02-15T06:56:38.530Z,1025.60
2019-02-15T06:57:38.533Z,1025.60
2019-02-15T06:58:45.496Z,1025.60
2019-02-15T06:59:39.492Z,1025.59
2019-02-15T07:00:38.479Z,1025.58
2019-02-15T07:01:38.467Z,1025.66
2019-02-15T07:02:38.455Z,1025.62
2019-02-15T07:03:40.135Z,1025.63
2019-02-15T07:04:38.435Z,1025.64
2019-02-15T07:05:38.431Z,1025.65
2019-02-15T07:06:38.419Z,1025.63
2019-02-15T07:07:38.410Z,1025.66
2019-02-15T07:08:38.401Z,1025.67
2019-02-15T07:09:38.382Z,1025.66
2019-02-15T07:10:38.369Z,1025.69
2019-02-15T07:11:38.365Z,1025.72
2019-02-15T07:12:38.346Z,1025.69
2019-02-15T07:13:38.349Z,1025.69
2019-02-15T07:14:38.327Z,1025.72
2019-02-15T07:15:38.329Z,1025.71
2019-02-15T07:16:38.311Z,1025.69
2019-02-15T07:17:38.302Z,1025.72
2019-02-15T07:18:38.284Z,1025.74
2019-02-15T07:19:38.316Z,1025.73
2019-02-15T07:20:38.262Z,1025.71
2019-02-15T07:21:38.249Z,1025.70
2019-02-15T07:22:38.246Z,1025.71
2019-02-15T07:23:38.235Z,1025.76
2019-02-15T07:24:38.217Z,1025.75
2019-02-15T07:25:38.220Z,1025.72
2019-02-15T07:26:38.210Z,1025.68
2019-02-15T07:27:38.185Z,1025.73
2019-02-15T07:28:38.192Z,1025.74
2019-02-15T07:29:38.173Z,1025.73
2019-02-15T07:30:38.162Z,1025.77
2019-02-15T07:31:38.144Z,1025.78
2019-02-15T07:32:38.137Z,1025.77
2019-02-15T07:33:38.133Z,1025.79
2019-02-15T07:34:38.116Z,1025.80
2019-02-15T07:35:38.105Z,1025.78
2019-02-15T07:36:38.089Z,1025.80
2019-02-15T07:37:38.078Z,1025.80
2019-02-15T07:38:38.078Z,1025.77
2019-02-15T07:39:38.055Z,1025.78
2019-02-15T07:40:38.047Z,1025.77
2019-02-15T07:41:38.040Z,1025.79
2019-02-15T07:42:38.021Z,1025.77
2019-02-15T07:43:38.027Z,1025.77
2019-02-15T07:44:38.008Z,1025.80
2019-02-15T07:45:42.786Z,1025.81
2019-02-15T07:46:38.976Z,1025.83
2019-02-15T07:47:37.975Z,1025.81
2019-02-15T07:48:37.963Z,1025.83
2019-02-15T07:49:37.944Z,1025.78
2019-02-15T07:50:37.957Z,1025.80
2019-02-15T07:51:37.924Z,1025.81
2019-02-15T07:52:37.911Z,1025.78
2019-02-15T07:53:37.907Z,1025.76
2019-02-15T07:54:37.892Z,1025.79
2019-02-15T07:55:37.880Z,1025.80
2019-02-15T07:56:37.904Z,1025.80
2019-02-15T07:57:37.857Z,1025.79
2019-02-15T07:58:37.846Z,1025.79
2019-02-15T07:59:37.844Z,1025.73
2019-02-15T08:00:37.824Z,1025.76
2019-02-15T08:01:37.814Z,1025.76
2019-02-15T08:02:37.826Z,1025.73
2019-02-15T08:03:37.795Z,1025.70
2019-02-15T08:04:37.780Z,1025.74
2019-02-15T08:05:37.779Z,1025.73
2019-02-15T08:06:37.760Z,1025.72
2019-02-15T08:07:37.750Z,1025.72
2019-02-15T08:08:37.759Z,1025.69
2019-02-15T08:09:37.727Z,1025.67
2019-02-15T08:10:39.442Z,1025.70
2019-02-15T08:11:37.707Z,1025.67
2019-02-15T08:12:37.697Z,1025.66
2019-02-15T08:13:37.701Z,1025.60
2019-02-15T08:14:37.671Z,1025.57
2019-02-15T08:15:37.660Z,1025.60
2019-02-15T08:16:38.838Z,1025.60
2019-02-15T08:17:37.648Z,1025.61
2019-02-15T08:18:37.627Z,1025.60
2019-02-15T08:19:37.630Z,1025.62
2019-02-15T08:20:37.605Z,1025.60
2019-02-15T08:21:37.602Z,1025.61
2019-02-15T08:22:37.616Z,1025.62
2019-02-15T08:23:37.579Z,1025.61
2019-02-15T08:24:37.561Z,1025.60
2019-02-15T08:25:37.551Z,1025.60
2019-02-15T08:26:37.541Z,1025.54
2019-02-15T08:27:37.530Z,1025.57
2019-02-15T08:28:37.556Z,1025.55
2019-02-15T08:29:37.519Z,1025.61
2019-02-15T08:30:37.496Z,1025.60
2019-02-15T08:31:37.486Z,1025.61
2019-02-15T08:32:37.477Z,1025.60
2019-02-15T08:33:37.469Z,1025.61
2019-02-15T08:34:37.472Z,1025.60
2019-02-15T08:35:37.457Z,1025.59
2019-02-15T08:36:37.431Z,1025.63
2019-02-15T08:37:37.419Z,1025.64
2019-02-15T08:38:37.454Z,1025.65
2019-02-15T08:39:37.398Z,1025.65
2019-02-15T08:40:37.615Z,1025.66
2019-02-15T08:41:37.382Z,1025.64
2019-02-15T08:42:37.368Z,1025.66
2019-02-15T08:43:37.355Z,1025.64
2019-02-15T08:44:37.362Z,1025.62
2019-02-15T08:45:37.335Z,1025.60
2019-02-15T08:46:37.320Z,1025.61
2019-02-15T08:47:37.315Z,1025.64
2019-02-15T08:48:45.691Z,1025.59
2019-02-15T08:49:38.289Z,1025.62
2019-02-15T08:50:37.279Z,1025.59
2019-02-15T08:51:37.270Z,1025.61
2019-02-15T08:52:37.255Z,1025.60
2019-02-15T08:53:37.250Z,1025.65
2019-02-15T08:54:37.256Z,1025.62
2019-02-15T08:55:37.223Z,1025.62
2019-02-15T08:56:37.212Z,1025.64
2019-02-15T08:57:37.206Z,1025.63
2019-02-15T08:58:37.230Z,1025.62
2019-02-15T08:59:37.186Z,1025.63
2019-02-15T09:00:37.169Z,1025.60
2019-02-15T09:01:37.157Z,1025.60
2019-02-15T09:02:37.146Z,1025.62
2019-02-15T09:03:37.136Z,1025.58
2019-02-15T09:04:37.146Z,1025.58
2019-02-15T09:05:37.127Z,1025.57
2019-02-15T09:06:37.102Z,1025.59
2019-02-15T09:07:37.091Z,1025.60
2019-02-15T09:08:37.081Z,1025.58
2019-02-15T09:09:37.423Z,1025.56
2019-02-15T09:10:37.058Z,1025.55
2019-02-15T09:11:37.053Z,1025.48
2019-02-15T09:12:37.037Z,1025.47
2019-02-15T09:13:37.027Z,1025.48
2019-02-15T09:14:37.016Z,1025.48
2019-02-15T09:15:37.025Z,1025.47
2019-02-15T09:16:36.995Z,1025.50
2019-02-15T09:17:36.987Z,1025.49
2019-02-15T09:18:36.974Z,1025.50
2019-02-15T09:19:37.023Z,1025.49
2019-02-15T09:20:36.973Z,1025.51
2019-02-15T09:21:36.936Z,1025.50
2019-02-15T09:22:36.929Z,1025.50
2019-02-15T09:23:36.927Z,1025.49
2019-02-15T09:24:36.911Z,1025.51
2019-02-15T09:25:36.913Z,1025.46
2019-02-15T09:26:36.910Z,1025.46
2019-02-15T09:27:36.870Z,1025.44
2019-02-15T09:28:36.857Z,1025.48
2019-02-15T09:29:36.848Z,1025.40
2019-02-15T09:30:36.887Z,1025.45
2019-02-15T09:31:36.824Z,1025.44
2019-02-15T09:32:36.821Z,1025.49
2019-02-15T09:33:36.805Z,1025.44
2019-02-15T09:34:36.793Z,1025.45
2019-02-15T09:35:36.779Z,1025.43
2019-02-15T09:36:36.799Z,1025.44
2019-02-15T09:37:36.777Z,1025.40
2019-02-15T09:38:36.746Z,1025.35
2019-02-15T09:39:36.736Z,1025.38
2019-02-15T09:40:36.724Z,1025.36
2019-02-15T09:41:36.734Z,1025.35
2019-02-15T09:42:36.711Z,1025.36
2019-02-15T09:43:36.693Z,1025.34
2019-02-15T09:44:36.683Z,1025.35
2019-02-15T09:45:36.671Z,1025.38
2019-02-15T09:46:36.679Z,1025.36
2019-02-15T09:47:36.671Z,1025.39
2019-02-15T09:48:36.661Z,1025.39
2019-02-15T09:49:36.632Z,1025.38
2019-02-15T09:50:36.618Z,1025.36
2019-02-15T09:51:36.606Z,1025.35
2019-02-15T09:52:36.628Z,1025.39
2019-02-15T09:53:36.584Z,1025.35
2019-02-15T09:54:36.582Z,1025.33
2019-02-15T09:55:36.566Z,1025.32
2019-02-15T09:56:36.549Z,1025.33
2019-02-15T09:57:36.538Z,1025.31
2019-02-15T09:58:36.548Z,1025.29
2019-02-15T09:59:36.517Z,1025.30
2019-02-15T10:00:36.517Z,1025.28
2019-02-15T10:01:36.494Z,1025.33
2019-02-15T10:02:36.506Z,1025.27
2019-02-15T10:03:36.471Z,1025.27
2019-02-15T10:04:36.466Z,1025.26
2019-02-15T10:05:36.458Z,1025.29
2019-02-15T10:06:36.447Z,1025.26
2019-02-15T10:07:36.429Z,1025.29
2019-02-15T10:08:36.436Z,1025.25
2019-02-15T10:09:36.406Z,1025.24
2019-02-15T10:10:36.396Z,1025.26
2019-02-15T10:11:36.388Z,1025.24
2019-02-15T10:12:36.407Z,1025.26
2019-02-15T10:13:36.361Z,1025.28
2019-02-15T10:14:36.352Z,1025.27
2019-02-15T10:15:36.350Z,1025.24
2019-02-15T10:16:36.329Z,1025.23
2019-02-15T10:17:36.319Z,1025.26
2019-02-15T10:18:36.336Z,1025.28
2019-02-15T10:19:36.318Z,1025.22
2019-02-15T10:20:36.288Z,1025.16
2019-02-15T10:21:36.271Z,1025.25
2019-02-15T10:22:36.261Z,1025.24
2019-02-15T10:23:36.256Z,1025.25
2019-02-15T10:24:36.287Z,1025.24
2019-02-15T10:25:36.228Z,1025.24
2019-02-15T10:26:36.216Z,1025.21
2019-02-15T10:27:36.207Z,1025.20
2019-02-15T10:28:36.195Z,1025.16
2019-02-15T10:29:36.185Z,1025.19
2019-02-15T10:30:36.203Z,1025.21
2019-02-15T10:31:36.163Z,1025.15
2019-02-15T10:32:36.150Z,1025.16
2019-02-15T10:33:36.149Z,1025.17
2019-02-15T10:34:36.134Z,1025.18
2019-02-15T10:35:36.138Z,1025.16
2019-02-15T10:36:36.125Z,1025.16
2019-02-15T10:37:36.094Z,1025.15
2019-02-15T10:38:36.105Z,1025.12
2019-02-15T10:39:36.077Z,1025.07
2019-02-15T10:40:36.065Z,1025.11
2019-02-15T10:41:36.053Z,1025.10
2019-02-15T10:42:36.073Z,1025.08
2019-02-15T10:43:36.039Z,1025.06
2019-02-15T10:44:36.021Z,1025.11
2019-02-15T10:45:36.030Z,1025.09
2019-02-15T10:46:37.848Z,1025.07
2019-02-15T10:47:35.987Z,1025.09
2019-02-15T10:48:35.975Z,1025.04
2019-02-15T10:49:35.991Z,1025.01
2019-02-15T10:50:35.953Z,1025.03
2019-02-15T10:51:35.942Z,1025.00
2019-02-15T10:52:35.932Z,1025.00
2019-02-15T10:53:35.922Z,1024.96
2019-02-15T10:54:35.927Z,1024.99
2019-02-15T10:55:38.022Z,1024.96
2019-02-15T10:56:35.887Z,1024.97
2019-02-15T10:57:35.906Z,1024.94
2019-02-15T10:58:35.865Z,1024.91
2019-02-15T10:59:35.856Z,1024.95
2019-02-15T11:00:35.842Z,1024.94
2019-02-15T11:01:35.840Z,1024.92
2019-02-15T11:02:35.821Z,1024.91
2019-02-15T11:03:36.654Z,1024.91
2019-02-15T11:04:35.800Z,1024.89
2019-02-15T11:05:35.788Z,1024.87
2019-02-15T11:06:35.777Z,1024.90
2019-02-15T11:07:35.772Z,1024.86
2019-02-15T11:08:35.756Z,1024.86
2019-02-15T11:09:35.768Z,1024.88
2019-02-15T11:10:35.732Z,1024.82
2019-02-15T11:11:35.721Z,1024.82
2019-02-15T11:12:35.709Z,1024.86
2019-02-15T11:13:35.700Z,1024.80
2019-02-15T11:14:35.696Z,1024.80
2019-02-15T11:15:35.696Z,1024.81
2019-02-15T11:16:35.667Z,1024.79
2019-02-15T11:17:35.655Z,1024.78
2019-02-15T11:18:35.643Z,1024.77
2019-02-15T11:19:35.630Z,1024.74
2019-02-15T11:20:35.645Z,1024.72
2019-02-15T11:21:35.607Z,1024.72
2019-02-15T11:22:35.623Z,1024.69
2019-02-15T11:23:35.585Z,1024.66
2019-02-15T11:24:35.575Z,1024.65
2019-02-15T11:25:35.563Z,1024.66
2019-02-15T11:26:35.554Z,1024.65
2019-02-15T11:27:35.540Z,1024.63
2019-02-15T11:28:35.559Z,1024.65
2019-02-15T11:29:35.517Z,1024.59
2019-02-15T11:30:35.506Z,1024.57
2019-02-15T11:31:35.497Z,1024.56
2019-02-15T11:32:35.490Z,1024.55
2019-02-15T11:33:35.498Z,1024.60
2019-02-15T11:34:35.462Z,1024.59
2019-02-15T11:35:35.475Z,1024.58
2019-02-15T11:36:35.441Z,1024.56
2019-02-15T11:37:35.446Z,1024.58
2019-02-15T11:38:35.419Z,1024.58
2019-02-15T11:39:35.425Z,1024.56
2019-02-15T11:40:35.395Z,1024.58
2019-02-15T11:41:35.383Z,1024.54
2019-02-15T11:42:35.372Z,1024.55
2019-02-15T11:43:35.361Z,1024.51
2019-02-15T11:44:35.378Z,1024.51
2019-02-15T11:45:35.339Z,1024.47
2019-02-15T11:46:35.327Z,1024.52
2019-02-15T11:47:35.316Z,1024.45
2019-02-15T11:48:35.305Z,1024.42
2019-02-15T11:49:35.343Z,1024.38
2019-02-15T11:50:35.287Z,1024.38
2019-02-15T11:51:35.271Z,1024.36
2019-02-15T11:52:35.260Z,1024.36
2019-02-15T11:53:35.250Z,1024.32
2019-02-15T11:54:35.240Z,1024.32
2019-02-15T11:55:35.253Z,1024.35
2019-02-15T11:56:35.227Z,1024.36
2019-02-15T11:57:35.211Z,1024.27
2019-02-15T11:58:35.211Z,1024.30
2019-02-15T11:59:35.182Z,1024.28
2019-02-15T12:00:35.180Z,1024.26
2019-02-15T12:01:35.190Z,1024.28
2019-02-15T12:02:35.162Z,1024.24
2019-02-15T12:03:35.138Z,1024.22
2019-02-15T12:04:35.132Z,1024.21
2019-02-15T12:05:35.116Z,1024.26